createdAt,value
2019-06-15T00:03:12.609Z,96.50
2019-06-15T00:07:19.015Z,96.40
2019-06-15T00:11:27.974Z,96.80
2019-06-15T00:15:35.398Z,96.80
2019-06-15T00:19:42.714Z,96.90
2019-06-15T00:23:48.445Z,97.50
2019-06-15T00:27:54.049Z,97.60
2019-06-15T00:32:01.904Z,97.30
2019-06-15T00:36:07.813Z,97.00
2019-06-15T00:40:16.040Z,97.10
2019-06-15T00:44:22.193Z,97.30
2019-06-15T00:48:28.594Z,97.90
2019-06-15T00:52:35.377Z,98.80
2019-06-15T00:56:41.287Z,98.80
2019-06-15T01:00:47.695Z,99.30
2019-06-15T01:04:54.995Z,99.30
2019-06-15T01:09:01.396Z,99.10
2019-06-15T01:13:08.942Z,99.50
2019-06-15T01:17:14.744Z,99.90
2019-06-15T01:21:21.046Z,99.90
2019-06-15T01:25:28.371Z,99.90
2019-06-15T01:29:34.824Z,99.90
2019-06-15T01:33:41.053Z,99.90
2019-06-15T01:37:46.639Z,99.90
2019-06-15T01:41:53.401Z,99.90
2019-06-15T01:45:58.834Z,99.90
2019-06-15T01:50:04.970Z,99.90
2019-06-15T01:54:11.982Z,99.90
2019-06-15T01:58:19.315Z,99.90
2019-06-15T02:02:25.535Z,99.90
2019-06-15T02:06:36.092Z,99.90
2019-06-15T02:10:42.204Z,99.90
2019-06-15T02:14:47.405Z,99.90
2019-06-15T02:18:54.250Z,99.90
2019-06-15T02:22:59.807Z,99.90
2019-06-15T02:27:06.439Z,99.90
2019-06-15T02:31:13.131Z,99.90
2019-06-15T02:35:20.078Z,99.90
2019-06-15T02:39:26.986Z,99.90
2019-06-15T02:43:33.551Z,99.90
2019-06-15T02:47:39.340Z,99.90
2019-06-15T02:51:47.409Z,99.90
2019-06-15T02:55:53.859Z,99.90
2019-06-15T03:00:01.275Z,99.90
2019-06-15T03:04:06.789Z,99.90
2019-06-15T03:08:13.402Z,99.90
2019-06-15T03:12:20.090Z,99.90
2019-06-15T03:16:27.792Z,99.90
2019-06-15T03:20:35.108Z,99.90
2019-06-15T03:24:41.272Z,99.90
2019-06-15T03:28:47.481Z,99.90
2019-06-15T03:32:53.867Z,99.90
2019-06-15T03:36:59.660Z,99.90
2019-06-15T03:41:04.918Z,99.90
2019-06-15T03:45:11.694Z,99.90
2019-06-15T03:49:18.818Z,99.90
2019-06-15T03:53:27.011Z,99.90
2019-06-15T03:57:33.394Z,99.90
2019-06-15T04:01:45.934Z,99.90
2019-06-15T04:05:52.881Z,99.90
2019-06-15T04:10:00.017Z,99.90
2019-06-15T04:14:07.294Z,99.90
2019-06-15T04:18:12.824Z,98.60
2019-06-15T04:22:18.989Z,97.30
2019-06-15T04:26:35.586Z,97.00
2019-06-15T04:30:34.865Z,95.20
2019-06-15T04:34:41.614Z,93.70
2019-06-15T04:38:50.493Z,93.60
2019-06-15T04:42:56.182Z,92.60
2019-06-15T04:47:01.776Z,93.00
2019-06-15T04:51:08.612Z,92.60
2019-06-15T04:55:15.189Z,92.20
2019-06-15T04:59:20.800Z,92.70
2019-06-15T05:03:26.827Z,92.00
2019-06-15T05:07:33.650Z,91.10
2019-06-15T05:11:39.874Z,91.10
2019-06-15T05:15:45.470Z,90.40
2019-06-15T05:20:12.476Z,89.60
2019-06-15T05:24:19.028Z,88.00
2019-06-15T05:28:26.413Z,87.30
2019-06-15T05:32:33.169Z,87.50
2019-06-15T05:36:39.602Z,85.90
2019-06-15T05:40:47.682Z,83.50
2019-06-15T05:44:53.512Z,83.60
2019-06-15T05:49:06.595Z,84.70
2019-06-15T05:53:12.879Z,81.80
2019-06-15T05:57:24.334Z,81.10
2019-06-15T06:01:29.863Z,81.20
2019-06-15T06:05:35.494Z,79.30
2019-06-15T06:09:52.923Z,80.10
2019-06-15T06:13:59.444Z,79.40
2019-06-15T06:18:30.677Z,79.20
2019-06-15T06:22:37.709Z,75.50
2019-06-15T06:26:54.411Z,76.60
2019-06-15T06:31:06.858Z,74.50
2019-06-15T06:35:21.386Z,76.80
2019-06-15T06:39:32.554Z,74.50
2019-06-15T06:43:37.775Z,71.20
2019-06-15T06:47:44.391Z,71.70
2019-06-15T06:51:50.271Z,68.00
2019-06-15T06:55:56.265Z,67.10
2019-06-15T07:00:02.344Z,67.60
2019-06-15T07:04:09.094Z,65.10
2019-06-15T07:08:16.898Z,67.00
2019-06-15T07:12:25.221Z,66.00
2019-06-15T07:16:30.766Z,67.30
2019-06-15T07:20:36.137Z,68.70
2019-06-15T07:24:41.905Z,68.80
2019-06-15T07:28:47.963Z,69.50
2019-06-15T07:32:54.199Z,65.70
2019-06-15T07:37:01.653Z,65.80
2019-06-15T07:41:06.863Z,65.10
2019-06-15T07:45:14.198Z,65.20
2019-06-15T07:49:21.262Z,64.70
2019-06-15T07:53:26.893Z,65.60
2019-06-15T07:57:33.068Z,62.90
2019-06-15T08:01:40.074Z,61.70
2019-06-15T08:05:46.872Z,62.30
2019-06-15T08:09:53.345Z,59.10
2019-06-15T08:13:58.756Z,59.10
2019-06-15T08:18:05.197Z,58.50
2019-06-15T08:22:11.105Z,58.10
2019-06-15T08:26:18.086Z,56.10
2019-06-15T08:30:33.300Z,49.40
2019-06-15T08:34:39.678Z,48.40
2019-06-15T08:38:46.148Z,50.10
2019-06-15T08:42:51.901Z,51.10
2019-06-15T08:46:59.472Z,50.50
2019-06-15T08:51:06.834Z,48.90
2019-06-15T08:55:14.961Z,51.30
2019-06-15T08:59:19.937Z,50.60
2019-06-15T09:03:24.823Z,50.50
2019-06-15T09:07:30.572Z,48.40
2019-06-15T09:11:36.776Z,44.90
2019-06-15T09:16:01.852Z,42.20
2019-06-15T09:20:07.593Z,43.00
2019-06-15T09:24:12.721Z,45.30
2019-06-15T09:28:17.638Z,45.70
2019-06-15T09:32:22.574Z,46.50
2019-06-15T09:36:27.517Z,45.80
2019-06-15T09:40:32.412Z,41.20
2019-06-15T09:44:37.416Z,38.70
2019-06-15T09:48:42.597Z,36.80
2019-06-15T09:52:47.893Z,37.40
2019-06-15T09:56:54.610Z,37.60
2019-06-15T10:01:01.302Z,35.30
2019-06-15T10:05:08.117Z,32.60
2019-06-15T10:09:13.532Z,33.40
2019-06-15T10:13:18.616Z,29.50
2019-06-15T10:17:23.664Z,27.10
2019-06-15T10:21:28.552Z,28.40
2019-06-15T10:25:33.956Z,30.50
2019-06-15T10:29:42.327Z,30.00
2019-06-15T10:33:45.859Z,31.00
2019-06-15T10:37:51.177Z,29.40
2019-06-15T10:41:56.045Z,28.60
2019-06-15T10:46:01.159Z,26.50
2019-06-15T10:50:07.105Z,26.60
2019-06-15T10:54:12.482Z,27.00
2019-06-15T10:58:18.348Z,26.00
2019-06-15T11:02:23.762Z,25.70
2019-06-15T11:06:31.120Z,28.30
2019-06-15T11:11:00.757Z,30.60
2019-06-15T11:15:06.928Z,30.20
2019-06-15T11:19:12.288Z,32.70
2019-06-15T11:23:17.776Z,30.50
2019-06-15T11:27:23.055Z,31.90
2019-06-15T11:31:27.967Z,34.20
2019-06-15T11:35:33.412Z,33.30
2019-06-15T11:39:38.511Z,35.10
2019-06-15T11:43:43.380Z,37.50
2019-06-15T11:47:48.654Z,39.30
2019-06-15T11:51:53.991Z,43.00
2019-06-15T11:55:58.894Z,43.20
2019-06-15T12:00:04.280Z,41.90
2019-06-15T12:04:09.148Z,42.40
2019-06-15T12:08:14.591Z,42.50
2019-06-15T12:12:19.707Z,41.00
2019-06-15T12:16:24.821Z,41.90
2019-06-15T12:20:30.594Z,44.40
2019-06-15T12:24:35.744Z,47.40
2019-06-15T12:28:41.087Z,45.00
2019-06-15T12:32:48.111Z,48.20
2019-06-15T12:36:53.567Z,48.50
2019-06-15T12:40:58.836Z,48.30
2019-06-15T12:45:04.604Z,48.70
2019-06-15T12:49:09.848Z,48.00
2019-06-15T12:53:15.238Z,51.00
2019-06-15T12:57:20.655Z,51.40
2019-06-15T13:01:25.814Z,52.40
2019-06-15T13:05:31.102Z,52.40
2019-06-15T13:09:37.845Z,53.50
2019-06-15T13:13:42.990Z,50.40
2019-06-15T13:17:48.241Z,47.80
2019-06-15T13:21:53.811Z,46.70
2019-06-15T13:26:13.604Z,42.70
2019-06-15T13:30:21.555Z,38.80
2019-06-15T13:34:26.881Z,32.80
2019-06-15T13:38:32.369Z,33.30
2019-06-15T13:42:38.130Z,33.40
2019-06-15T13:46:43.197Z,32.70
2019-06-15T13:50:49.094Z,36.20
2019-06-15T13:54:54.662Z,35.70
2019-06-15T13:59:00.014Z,33.70
2019-06-15T14:03:05.471Z,31.60
2019-06-15T14:07:10.929Z,28.50
2019-06-15T14:11:16.266Z,27.80
2019-06-15T14:15:21.598Z,26.50
2019-06-15T14:19:27.578Z,24.90
2019-06-15T14:23:32.921Z,24.90
2019-06-15T14:27:38.441Z,27.50
2019-06-15T14:31:50.316Z,26.60
2019-06-15T14:35:50.919Z,25.50
2019-06-15T14:39:56.254Z,25.20
2019-06-15T14:44:02.791Z,25.40
2019-06-15T14:48:08.013Z,25.00
2019-06-15T14:52:13.327Z,25.00
2019-06-15T14:56:18.451Z,26.30
2019-06-15T15:00:24.385Z,25.90
2019-06-15T15:04:29.725Z,22.20
2019-06-15T15:08:36.742Z,23.40
2019-06-15T15:12:42.149Z,24.10
2019-06-15T15:16:47.427Z,24.00
2019-06-15T15:20:52.582Z,24.60
2019-06-15T15:24:57.792Z,24.40
2019-06-15T15:29:02.957Z,24.40
2019-06-15T15:33:08.642Z,24.50
2019-06-15T15:37:15.837Z,26.10
2019-06-15T15:41:22.021Z,27.60
2019-06-15T15:45:27.194Z,27.40
2019-06-15T15:49:32.297Z,28.40
2019-06-15T15:53:37.567Z,28.20
2019-06-15T15:57:42.661Z,26.80
2019-06-15T16:01:56.657Z,28.30
2019-06-15T16:06:02.210Z,27.50
2019-06-15T16:10:07.273Z,27.50
2019-06-15T16:14:46.323Z,27.90
2019-06-15T16:18:51.266Z,31.80
2019-06-15T16:23:09.817Z,34.30
2019-06-15T16:32:08.559Z,39.30
2019-06-15T16:36:46.741Z,41.10
2019-06-15T16:40:51.059Z,43.20
2019-06-15T16:44:57.623Z,46.40
2019-06-15T16:49:03.393Z,45.10
2019-06-15T16:53:08.809Z,46.10
2019-06-15T16:57:15.956Z,45.90
2019-06-15T17:01:22.362Z,45.90
2019-06-15T17:05:27.818Z,47.00
2019-06-15T17:09:36.178Z,46.50
2019-06-15T17:13:41.503Z,48.10
2019-06-15T17:17:47.282Z,49.30
2019-06-15T17:21:54.057Z,48.90
2019-06-15T17:25:59.501Z,50.90
2019-06-15T17:30:07.708Z,50.80
2019-06-15T17:34:13.034Z,52.40
2019-06-15T17:38:18.146Z,52.70
2019-06-15T17:42:25.885Z,54.20
2019-06-15T17:46:30.647Z,58.40
2019-06-15T17:50:40.370Z,60.50
2019-06-15T17:54:46.788Z,63.60
2019-06-15T17:58:52.169Z,65.80
2019-06-15T18:02:57.513Z,66.30
2019-06-15T18:07:02.750Z,68.40
2019-06-15T18:11:08.096Z,68.20
2019-06-15T18:15:13.368Z,68.60
2019-06-15T18:19:18.249Z,69.00
2019-06-15T18:23:23.225Z,69.20
2019-06-15T18:27:28.161Z,70.80
2019-06-15T18:31:33.019Z,72.90
2019-06-15T18:35:38.015Z,74.00
2019-06-15T18:39:43.115Z,74.80
2019-06-15T18:43:48.424Z,75.40
2019-06-15T18:47:53.910Z,76.10
2019-06-15T18:51:58.861Z,76.50
2019-06-15T18:56:06.991Z,77.80
2019-06-15T19:00:12.032Z,78.00
2019-06-15T19:04:24.708Z,79.10
2019-06-15T19:08:23.580Z,79.80
2019-06-15T19:12:29.971Z,80.60
2019-06-15T19:16:37.052Z,81.30
2019-06-15T19:20:41.567Z,81.70
2019-06-15T19:24:50.291Z,82.10
2019-06-15T19:28:55.959Z,82.80
2019-06-15T19:33:02.236Z,84.10
2019-06-15T19:37:07.302Z,84.00
2019-06-15T19:41:12.241Z,84.30
2019-06-15T19:45:18.795Z,85.50
2019-06-15T19:49:25.851Z,86.70
2019-06-15T19:53:30.385Z,86.10
2019-06-15T19:57:36.492Z,87.40
2019-06-15T20:01:41.678Z,88.60
2019-06-15T20:05:47.115Z,88.60
2019-06-15T20:09:52.757Z,88.70
2019-06-15T20:14:01.569Z,88.50
2019-06-15T20:18:07.577Z,88.40
2019-06-15T20:22:22.242Z,88.60
2019-06-15T20:26:27.524Z,88.50
2019-06-15T20:30:37.022Z,88.40
2019-06-15T20:34:42.554Z,89.40
2019-06-15T20:38:47.782Z,89.70
2019-06-15T20:43:02.035Z,90.00
2019-06-15T20:47:07.134Z,90.40
2019-06-15T20:51:12.659Z,90.30
2019-06-15T20:55:17.825Z,90.20
2019-06-15T20:59:40.489Z,90.50
2019-06-15T21:03:47.063Z,90.70
2019-06-15T21:08:07.037Z,90.70
2019-06-15T21:12:12.500Z,91.00
2019-06-15T21:16:18.330Z,91.20
2019-06-15T21:20:23.464Z,91.20
2019-06-15T21:24:28.678Z,91.20
2019-06-15T21:28:36.808Z,91.50
2019-06-15T21:32:41.908Z,91.70
2019-06-15T21:36:56.581Z,92.00
2019-06-15T21:41:01.134Z,92.30
2019-06-15T21:45:14.400Z,92.20
2019-06-15T21:49:19.704Z,92.60
2019-06-15T21:54:01.942Z,92.70
2019-06-15T21:58:37.099Z,92.70
2019-06-15T22:02:42.343Z,93.20
2019-06-15T22:06:48.121Z,93.00
2019-06-15T22:10:53.174Z,93.30
2019-06-15T22:14:58.234Z,93.60
2019-06-15T22:19:05.948Z,93.50
2019-06-15T22:23:10.143Z,93.80
2019-06-15T22:27:17.102Z,94.10
2019-06-15T22:31:21.983Z,94.40
2019-06-15T22:35:27.055Z,94.50
2019-06-15T22:39:32.687Z,94.70
2019-06-15T22:43:37.859Z,94.80
2019-06-15T22:47:56.049Z,95.20
2019-06-15T22:52:01.378Z,95.10
2019-06-15T22:56:06.860Z,95.10
2019-06-15T23:00:13.801Z,95.80
2019-06-15T23:04:18.857Z,96.40
2019-06-15T23:08:24.177Z,96.50
2019-06-15T23:12:29.334Z,96.30
2019-06-15T23:16:36.875Z,96.40
2019-06-15T23:20:41.419Z,96.70
2019-06-15T23:24:47.801Z,96.70
2019-06-15T23:28:53.121Z,96.70
2019-06-15T23:32:58.795Z,96.70
2019-06-15T23:37:06.742Z,96.90
2019-06-15T23:41:12.199Z,96.90
2019-06-15T23:45:17.629Z,97.10
2019-06-15T23:49:22.838Z,97.10
2019-06-15T23:53:28.049Z,97.90
2019-06-15T23:57:33.317Z,98.00
